createdAt,value
2018-09-18T08:26:09.554Z,45.32
2018-09-18T08:27:09.497Z,44.32
2018-09-18T08:28:09.460Z,44.92
2018-09-18T08:29:09.420Z,44.42
2018-09-18T08:30:09.455Z,44.32
2018-09-18T08:31:09.396Z,44.23
2018-09-18T08:32:09.371Z,44.23
2018-09-18T08:33:09.317Z,44.24
2018-09-18T08:34:09.236Z,44.94
2018-09-18T08:35:09.177Z,44.35
2018-09-18T08:36:09.122Z,45.34
2018-09-18T08:37:09.070Z,44.74
2018-09-18T08:38:09.048Z,44.84
2018-09-18T08:39:08.968Z,44.54
2018-09-18T08:40:09.076Z,45.24
2018-09-18T08:41:08.820Z,45.24
2018-09-18T08:42:08.768Z,45.24
2018-09-18T08:43:08.764Z,44.94
2018-09-18T08:44:08.631Z,44.94
2018-09-18T08:45:08.558Z,45.54
2018-09-18T08:46:08.541Z,45.54
2018-09-18T08:47:08.426Z,45.84
2018-09-18T08:48:08.361Z,45.94
2018-09-18T08:49:08.346Z,46.34
2018-09-18T08:50:08.223Z,45.44
2018-09-18T08:51:08.149Z,46.24
2018-09-18T08:52:08.174Z,45.94
2018-09-18T08:53:08.047Z,46.14
2018-09-18T08:54:07.951Z,46.44
2018-09-18T08:55:07.935Z,46.54
2018-09-18T08:56:07.816Z,46.31
2018-09-18T08:57:07.752Z,46.14
2018-09-18T08:58:07.670Z,46.34
2018-09-18T08:59:07.611Z,46.54
2018-09-18T09:00:07.547Z,46.44
2018-09-18T09:01:07.537Z,46.44
2018-09-18T09:02:07.405Z,46.44
2018-09-18T09:03:07.345Z,46.42
2018-09-18T09:04:07.245Z,46.24
2018-09-18T09:05:07.213Z,47.02
2018-09-18T09:06:07.204Z,47.31
2018-09-18T09:07:07.048Z,47.14
2018-09-18T09:08:07.150Z,47.14
2018-09-18T09:09:06.949Z,47.24
2018-09-18T09:10:06.865Z,47.03
2018-09-18T09:11:06.739Z,46.73
2018-09-18T09:12:06.652Z,46.84
2018-09-18T09:13:06.611Z,46.91
2018-09-18T09:14:06.510Z,46.54
2018-09-18T09:15:06.502Z,46.34
2018-09-18T09:16:06.362Z,46.31
2018-09-18T09:17:06.263Z,47.21
2018-09-18T09:18:06.317Z,47.11
2018-09-18T09:19:13.737Z,47.31
2018-09-18T09:20:06.030Z,47.31
2018-09-18T09:21:06.057Z,47.02
2018-09-18T09:22:05.960Z,47.02
2018-09-18T09:23:05.978Z,47.51
2018-09-18T09:24:05.754Z,46.81
2018-09-18T09:25:05.682Z,47.02
2018-09-18T09:26:05.637Z,47.31
2018-09-18T09:27:05.504Z,47.31
2018-09-18T09:28:05.457Z,47.41
2018-09-18T09:29:05.357Z,47.51
2018-09-18T09:30:05.363Z,48.01
2018-09-18T09:31:05.236Z,47.81
2018-09-18T09:32:05.179Z,47.41
2018-09-18T09:33:05.043Z,47.21
2018-09-18T09:34:04.974Z,46.91
2018-09-18T09:35:04.884Z,47.41
2018-09-18T09:36:04.822Z,47.11
2018-09-18T09:37:04.916Z,47.41
2018-09-18T09:38:04.644Z,46.91
2018-09-18T09:39:04.575Z,47.41
2018-09-18T09:40:04.473Z,47.51
2018-09-18T09:41:04.388Z,47.71
2018-09-18T09:42:04.303Z,47.51
2018-09-18T09:43:04.253Z,47.61
2018-09-18T09:44:04.142Z,47.51
2018-09-18T09:45:04.164Z,48.11
2018-09-18T09:46:03.987Z,48.08
2018-09-18T09:47:03.903Z,47.89
2018-09-18T09:48:03.820Z,48.01
2018-09-18T09:49:11.755Z,47.91
2018-09-18T09:50:03.661Z,48.38
2018-09-18T09:51:03.624Z,48.38
2018-09-18T09:52:03.512Z,48.49
2018-09-18T09:53:03.431Z,48.38
2018-09-18T09:54:03.360Z,48.28
2018-09-18T09:55:03.269Z,48.58
2018-09-18T09:56:03.188Z,48.28
2018-09-18T09:57:03.200Z,48.58
2018-09-18T09:58:03.021Z,48.49
2018-09-18T09:59:02.942Z,48.49
2018-09-18T10:00:02.862Z,47.99
2018-09-18T10:01:02.773Z,48.49
2018-09-18T10:02:02.686Z,47.89
2018-09-18T10:03:02.660Z,48.08
2018-09-18T10:04:02.519Z,47.49
2018-09-18T10:05:02.436Z,47.09
2018-09-18T10:06:02.354Z,46.79
2018-09-18T10:07:02.265Z,47.29
2018-09-18T10:08:02.187Z,47.49
2018-09-18T10:09:02.125Z,46.39
2018-09-18T10:10:02.011Z,47.19
2018-09-18T10:11:01.953Z,46.39
2018-09-18T10:12:01.843Z,46.30
2018-09-18T10:13:01.767Z,46.69
2018-09-18T10:14:01.720Z,46.39
2018-09-18T10:15:01.604Z,47.11
2018-09-18T10:16:01.518Z,46.31
2018-09-18T10:17:01.436Z,46.39
2018-09-18T10:18:01.533Z,47.11
2018-09-18T10:19:01.267Z,47.02
2018-09-18T10:20:01.210Z,46.81
2018-09-18T10:21:01.103Z,47.21
2018-09-18T10:22:01.016Z,47.21
2018-09-18T10:23:00.930Z,47.91
2018-09-18T10:24:00.845Z,48.11
2018-09-18T10:25:00.779Z,48.31
2018-09-18T10:26:00.797Z,48.31
2018-09-18T10:27:00.702Z,48.41
2018-09-18T10:28:00.509Z,47.91
2018-09-18T10:29:00.426Z,47.91
2018-09-18T10:30:00.342Z,48.11
2018-09-18T10:31:00.261Z,47.91
2018-09-18T10:32:00.243Z,48.11
2018-09-18T10:33:00.113Z,48.01
2018-09-18T10:34:00.049Z,47.89
2018-09-18T10:34:59.939Z,48.11
2018-09-18T10:35:59.879Z,48.21
2018-09-18T10:36:59.853Z,48.21
2018-09-18T10:37:59.718Z,48.11
2018-09-18T10:38:59.611Z,48.11
2018-09-18T10:39:59.556Z,48.11
2018-09-18T10:40:59.537Z,48.11
2018-09-18T10:41:59.566Z,48.11
2018-09-18T10:42:59.385Z,48.21
2018-09-18T10:43:59.287Z,48.11
2018-09-18T10:44:59.136Z,48.21
2018-09-18T10:45:59.072Z,48.01
2018-09-18T10:46:58.993Z,48.11
2018-09-18T10:47:58.903Z,48.11
2018-09-18T10:48:58.886Z,47.91
2018-09-18T10:49:58.772Z,48.41
2018-09-18T10:50:59.211Z,48.91
2018-09-18T10:51:58.561Z,49.01
2018-09-18T10:52:58.488Z,48.98
2018-09-18T10:53:58.410Z,49.28
2018-09-18T10:54:58.374Z,49.48
2018-09-18T10:55:58.259Z,48.79
2018-09-18T10:56:58.195Z,49.08
2018-09-18T10:57:58.105Z,49.08
2018-09-18T10:58:58.042Z,49.18
2018-09-18T11:01:14.929Z,51.35
2018-09-18T11:02:14.849Z,49.43
2018-09-18T11:03:14.799Z,49.04
2018-09-18T11:04:14.780Z,49.04
2018-09-18T11:05:14.788Z,49.13
2018-09-18T11:06:14.779Z,49.04
2018-09-18T11:07:14.833Z,48.81
2018-09-18T11:08:14.842Z,49.01
2018-09-18T11:09:14.802Z,48.14
2018-09-18T11:10:14.760Z,48.41
2018-09-18T11:11:14.753Z,48.11
2018-09-18T11:12:14.939Z,47.72
2018-09-18T11:13:14.841Z,47.32
2018-09-18T11:14:14.745Z,47.22
2018-09-18T11:15:14.686Z,46.62
2018-09-18T11:16:14.782Z,46.62
2018-09-18T11:17:14.667Z,46.83
2018-09-18T11:18:14.621Z,46.72
2018-09-18T11:19:14.630Z,46.72
2018-09-18T11:20:14.682Z,47.13
2018-09-18T11:21:14.619Z,47.42
2018-09-18T11:22:14.698Z,47.22
2018-09-18T11:23:14.606Z,47.22
2018-09-18T11:24:14.578Z,47.13
2018-09-18T11:25:14.545Z,47.22
2018-09-18T11:26:14.585Z,47.32
2018-09-18T11:27:14.577Z,47.14
2018-09-18T11:28:14.520Z,47.42
2018-09-18T11:29:14.574Z,47.32
2018-09-18T11:30:14.518Z,47.22
2018-09-18T11:31:14.528Z,47.34
2018-09-18T11:32:14.528Z,47.44
2018-09-18T11:33:14.484Z,47.34
2018-09-18T11:34:14.450Z,47.44
2018-09-18T11:35:14.434Z,47.25
2018-09-18T11:36:14.440Z,47.54
2018-09-18T11:37:14.414Z,47.05
2018-09-18T11:38:14.474Z,47.25
2018-09-18T11:39:14.395Z,47.44
2018-09-18T11:40:14.409Z,47.84
2018-09-18T11:41:14.376Z,48.04
2018-09-18T11:42:14.360Z,48.44
2018-09-18T11:43:14.373Z,48.34
2018-09-18T11:44:14.371Z,48.44
2018-09-18T11:45:14.334Z,48.24
2018-09-18T11:46:14.330Z,48.24
2018-09-18T11:47:14.304Z,48.14
2018-09-18T11:48:14.316Z,48.04
2018-09-18T11:49:14.326Z,48.04
2018-09-18T11:50:14.332Z,48.04
2018-09-18T11:51:14.292Z,48.14
2018-09-18T11:52:14.244Z,48.14
2018-09-18T11:53:14.239Z,47.94
2018-09-18T11:54:14.234Z,48.61
2018-09-18T11:55:14.212Z,48.34
2018-09-18T11:56:14.277Z,48.44
2018-09-18T11:57:14.298Z,48.74
2018-09-18T11:58:14.229Z,48.64
2018-09-18T11:59:14.967Z,48.81
2018-09-18T12:00:14.162Z,48.94
2018-09-18T12:01:14.159Z,49.04
2018-09-18T12:02:14.149Z,49.04
2018-09-18T12:03:14.196Z,48.81
2018-09-18T12:04:14.145Z,48.71
2018-09-18T12:05:14.164Z,48.71
2018-09-18T12:06:14.092Z,48.91
2018-09-18T12:07:14.113Z,49.01
2018-09-18T12:08:14.071Z,48.61
2018-09-18T12:09:14.220Z,48.61
2018-09-18T12:10:14.075Z,49.11
2018-09-18T12:11:14.048Z,49.11
2018-09-18T12:12:14.199Z,49.01
2018-09-18T12:13:14.032Z,49.11
2018-09-18T12:14:14.004Z,49.01
2018-09-18T12:15:13.990Z,49.11
2018-09-18T12:16:14.013Z,49.11
2018-09-18T12:17:13.969Z,49.11
2018-09-18T12:18:13.987Z,48.91
2018-09-18T12:19:14.001Z,49.11
2018-09-18T12:20:13.934Z,49.21
2018-09-18T12:21:13.960Z,49.41
2018-09-18T12:22:13.957Z,49.41
2018-09-18T12:23:13.910Z,49.61
2018-09-18T12:24:13.982Z,49.58
2018-09-18T12:25:13.890Z,49.41
2018-09-18T12:26:13.870Z,49.41
2018-09-18T12:27:13.893Z,49.08
2018-09-18T12:28:13.851Z,49.08
2018-09-18T12:29:13.837Z,49.08
2018-09-18T12:30:13.858Z,49.19
2018-09-18T12:31:13.827Z,49.19
2018-09-18T12:32:13.808Z,49.19
2018-09-18T12:33:13.847Z,49.19
2018-09-18T12:34:13.798Z,49.38
2018-09-18T12:35:13.855Z,49.29
2018-09-18T12:36:13.777Z,49.58
2018-09-18T12:37:13.759Z,49.58
2018-09-18T12:38:13.764Z,49.49
2018-09-18T12:39:14.656Z,49.49
2018-09-18T12:40:13.775Z,49.58
2018-09-18T12:41:13.719Z,49.29
2018-09-18T12:42:13.875Z,49.58
2018-09-18T12:43:13.681Z,49.38
2018-09-18T12:44:13.668Z,49.49
2018-09-18T12:45:13.713Z,49.58
2018-09-18T12:46:13.650Z,49.49
2018-09-18T12:47:13.658Z,49.49
2018-09-18T12:48:13.657Z,49.78
2018-09-18T12:49:13.739Z,49.58
2018-09-18T12:50:13.844Z,49.49
2018-09-18T12:51:13.591Z,49.68
2018-09-18T12:52:13.595Z,50.18
2018-09-18T12:53:13.577Z,50.18
2018-09-18T12:54:13.655Z,49.78
2018-09-18T12:55:13.621Z,49.88
2018-09-18T12:56:13.598Z,49.98
2018-09-18T12:57:13.734Z,49.98
2018-09-18T12:58:13.568Z,50.18
2018-09-18T12:59:13.535Z,50.08
2018-09-18T13:00:13.565Z,49.88
2018-09-18T13:01:13.484Z,49.78
2018-09-18T13:02:13.487Z,49.88
2018-09-18T13:03:13.464Z,50.18
2018-09-18T13:04:13.451Z,50.08
2018-09-18T13:05:13.478Z,49.78
2018-09-18T13:06:13.624Z,50.28
2018-09-18T13:07:13.422Z,49.98
2018-09-18T13:08:13.578Z,50.08
2018-09-18T13:09:13.415Z,50.18
2018-09-18T13:10:13.388Z,49.78
2018-09-18T13:11:13.402Z,49.98
2018-09-18T13:12:13.359Z,49.78
2018-09-18T13:13:13.349Z,50.18
2018-09-18T13:14:13.476Z,50.18
2018-09-18T13:15:13.364Z,50.08
2018-09-18T13:16:13.313Z,50.38
2018-09-18T13:17:13.319Z,50.56
2018-09-18T13:18:13.357Z,50.35
2018-09-18T13:19:13.283Z,50.35
2018-09-18T13:20:13.268Z,50.45
2018-09-18T13:21:13.300Z,50.48
2018-09-18T13:22:13.321Z,50.38
2018-09-18T13:23:13.975Z,50.56
2018-09-18T13:24:13.257Z,50.35
2018-09-18T13:25:13.218Z,50.75
2018-09-18T13:26:13.221Z,50.35
2018-09-18T13:27:13.226Z,50.26
2018-09-18T13:28:13.185Z,50.45
2018-09-18T13:29:13.188Z,50.45
2018-09-18T13:30:13.172Z,50.35
2018-09-18T13:31:13.160Z,50.45
2018-09-18T13:32:13.137Z,50.35
2018-09-18T13:33:13.152Z,50.56
2018-09-18T13:34:13.116Z,50.45
2018-09-18T13:35:13.670Z,50.65
2018-09-18T13:36:13.104Z,50.85
2018-09-18T13:37:13.102Z,50.56
2018-09-18T13:38:13.069Z,50.56
2018-09-18T13:39:13.095Z,50.85
2018-09-18T13:40:13.050Z,50.85
2018-09-18T13:41:13.109Z,50.65
2018-09-18T13:42:13.033Z,50.85
2018-09-18T13:43:13.013Z,50.65
2018-09-18T13:44:13.026Z,50.65
2018-09-18T13:45:13.033Z,50.56
2018-09-18T13:46:12.985Z,50.75
2018-09-18T13:47:12.986Z,50.95
2018-09-18T13:48:12.969Z,50.85
2018-09-18T13:49:13.008Z,50.65
2018-09-18T13:50:12.958Z,51.15
2018-09-18T13:51:12.955Z,50.26
2018-09-18T13:52:12.921Z,49.96
2018-09-18T13:53:12.910Z,49.46
2018-09-18T13:54:12.905Z,49.86
2018-09-18T13:55:12.890Z,50.16
2018-09-18T13:56:12.998Z,50.45
2018-09-18T13:57:12.892Z,50.26
2018-09-18T13:58:12.859Z,50.75
2018-09-18T13:59:12.885Z,50.75
2018-09-18T14:00:12.827Z,50.75
2018-09-18T14:01:12.953Z,50.85
2018-09-18T14:02:12.831Z,50.56
2018-09-18T14:03:12.875Z,50.85
2018-09-18T14:04:12.849Z,50.95
2018-09-18T14:05:12.817Z,51.05
2018-09-18T14:06:12.763Z,50.73
2018-09-18T14:07:12.757Z,50.95
2018-09-18T14:08:12.854Z,50.85
2018-09-18T14:09:12.947Z,50.95
2018-09-18T14:10:12.747Z,50.65
2018-09-18T14:11:12.713Z,50.93
2018-09-18T14:12:12.742Z,50.95
2018-09-18T14:13:12.745Z,50.73
2018-09-18T14:14:13.047Z,50.85
2018-09-18T14:15:12.814Z,51.03
2018-09-18T14:16:12.670Z,50.93
2018-09-18T14:17:12.659Z,51.03
2018-09-18T14:18:12.637Z,50.85
2018-09-18T14:19:12.626Z,51.23
2018-09-18T14:20:12.671Z,51.12
2018-09-18T14:21:12.598Z,51.12
2018-09-18T14:22:12.593Z,50.35
2018-09-18T14:23:12.578Z,49.24
2018-09-18T14:24:12.579Z,44.87
2018-09-18T14:25:12.559Z,43.18
2018-09-18T14:26:12.617Z,43.08
2018-09-18T14:27:12.540Z,42.69
2018-09-18T14:28:12.556Z,42.66
2018-09-18T14:29:12.522Z,41.99
2018-09-18T14:30:12.499Z,41.87
2018-09-18T14:31:12.509Z,40.88
2018-09-18T14:32:12.568Z,40.88
2018-09-18T14:33:12.599Z,40.68
2018-09-18T14:34:12.455Z,40.19
2018-09-18T14:35:12.487Z,39.79
2018-09-18T14:36:12.442Z,39.89
2018-09-18T14:37:12.482Z,39.29
2018-09-18T14:38:12.477Z,39.49
2018-09-18T14:39:12.403Z,39.39
2018-09-18T14:40:12.397Z,39.39
2018-09-18T14:41:12.382Z,38.78
2018-09-18T14:42:12.370Z,38.90
2018-09-18T14:43:12.377Z,39.28
2018-09-18T14:44:12.384Z,38.68
2018-09-18T14:45:12.386Z,38.78
2018-09-18T14:46:12.343Z,38.60
2018-09-18T14:47:12.324Z,38.38
2018-09-18T14:48:12.320Z,37.49
2018-09-18T14:49:12.301Z,37.39
2018-09-18T14:50:12.315Z,37.09
2018-09-18T14:51:12.363Z,36.98
2018-09-18T14:52:12.301Z,35.78
2018-09-18T14:53:12.276Z,35.69
2018-09-18T14:54:12.332Z,36.38
2018-09-18T14:55:12.266Z,35.98
2018-09-18T14:56:12.270Z,35.88
2018-09-18T14:57:12.234Z,36.08
2018-09-18T14:58:12.234Z,35.39
2018-09-18T14:59:12.207Z,36.58
2018-09-18T15:00:12.263Z,36.98
2018-09-18T15:01:12.182Z,36.38
2018-09-18T15:02:12.209Z,36.77
2018-09-18T15:03:12.153Z,36.68
2018-09-18T15:04:12.140Z,37.47
2018-09-18T15:05:12.132Z,37.27
2018-09-18T15:06:12.133Z,36.98
2018-09-18T15:07:12.141Z,37.27
2018-09-18T15:08:12.138Z,36.58
2018-09-18T15:09:12.099Z,35.69
2018-09-18T15:10:12.083Z,36.38
2018-09-18T15:11:12.135Z,36.48
2018-09-18T15:12:12.056Z,35.39
2018-09-18T15:13:12.079Z,36.98
2018-09-18T15:14:12.260Z,36.18
2018-09-18T15:15:12.227Z,35.88
2018-09-18T15:16:12.008Z,35.69
2018-09-18T15:17:12.001Z,35.49
2018-09-18T15:18:11.994Z,35.67
2018-09-18T15:19:11.974Z,36.16
2018-09-18T15:20:12.003Z,36.16
2018-09-18T15:21:11.960Z,34.97
2018-09-18T15:22:11.944Z,34.80
2018-09-18T15:23:11.958Z,34.28
2018-09-18T15:24:11.927Z,34.08
2018-09-18T15:25:11.919Z,34.48
2018-09-18T15:26:11.926Z,34.08
2018-09-18T15:27:11.896Z,33.69
2018-09-18T15:28:11.877Z,34.28
2018-09-18T15:29:11.879Z,33.98
2018-09-18T15:30:11.901Z,34.88
2018-09-18T15:31:11.865Z,35.27
2018-09-18T15:32:11.933Z,35.65
2018-09-18T15:33:11.840Z,35.27
2018-09-18T15:34:11.817Z,37.24
2018-09-18T15:35:11.810Z,36.54
2018-09-18T15:36:11.802Z,36.24
2018-09-18T15:37:11.800Z,36.96
2018-09-18T15:38:11.826Z,36.24
2018-09-18T15:39:11.766Z,36.16
2018-09-18T15:40:11.874Z,36.84
2018-09-18T15:41:11.740Z,36.94
2018-09-18T15:42:11.730Z,36.94
2018-09-18T15:43:11.841Z,36.76
2018-09-18T15:44:11.745Z,35.75
2018-09-18T15:45:11.717Z,37.13
2018-09-18T15:46:11.704Z,35.46
2018-09-18T15:47:11.683Z,35.55
2018-09-18T15:48:11.662Z,35.75
2018-09-18T15:49:11.659Z,35.67
2018-09-18T15:50:11.676Z,35.27
2018-09-18T15:51:11.631Z,36.44
2018-09-18T15:52:11.813Z,37.24
2018-09-18T15:53:11.615Z,36.15
2018-09-18T15:54:11.609Z,36.24
2018-09-18T15:55:11.691Z,36.96
2018-09-18T15:56:11.658Z,36.96
2018-09-18T15:57:11.682Z,37.34
2018-09-18T15:58:11.643Z,37.15
2018-09-18T15:59:11.553Z,37.85
2018-09-18T16:00:11.533Z,37.55
2018-09-18T16:01:11.535Z,37.45
2018-09-18T16:02:11.586Z,38.54
2018-09-18T16:03:11.503Z,38.94
2018-09-18T16:04:11.496Z,38.74
2018-09-18T16:05:11.477Z,39.04
2018-09-18T16:06:11.478Z,39.06
2018-09-18T16:07:11.457Z,39.25
2018-09-18T16:08:11.479Z,39.36
2018-09-18T16:09:11.436Z,39.25
2018-09-18T16:10:11.429Z,40.05
2018-09-18T16:11:11.419Z,39.85
2018-09-18T16:12:11.413Z,39.65
2018-09-18T16:13:11.396Z,40.05
2018-09-18T16:14:11.438Z,40.64
2018-09-18T16:15:11.552Z,40.64
2018-09-18T16:16:11.538Z,40.55
2018-09-18T16:17:11.353Z,40.44
2018-09-18T16:18:11.371Z,40.64
2018-09-18T16:19:11.406Z,40.84
2018-09-18T16:20:11.330Z,40.74
2018-09-18T16:21:11.312Z,40.64
2018-09-18T16:22:11.297Z,41.06
2018-09-18T16:23:11.286Z,40.94
2018-09-18T16:24:11.297Z,40.84
2018-09-18T16:25:11.312Z,40.66
2018-09-18T16:26:11.263Z,41.83
2018-09-18T16:27:11.242Z,41.55
2018-09-18T16:28:11.233Z,41.46
2018-09-18T16:29:11.229Z,41.95
2018-09-18T16:30:11.249Z,41.46
2018-09-18T16:31:11.211Z,41.75
2018-09-18T16:32:11.201Z,41.95
2018-09-18T16:33:11.184Z,42.25
2018-09-18T16:34:11.177Z,42.15
2018-09-18T16:35:11.183Z,42.25
2018-09-18T16:36:11.202Z,42.25
2018-09-18T16:37:11.152Z,42.05
2018-09-18T16:38:11.124Z,42.45
2018-09-18T16:39:11.119Z,42.35
2018-09-18T16:40:11.221Z,42.05
2018-09-18T16:41:11.115Z,42.45
2018-09-18T16:42:11.122Z,42.25
2018-09-18T16:43:11.076Z,42.35
2018-09-18T16:44:11.067Z,42.45
2018-09-18T16:45:11.049Z,42.65
2018-09-18T16:46:11.040Z,42.74
2018-09-18T16:47:11.030Z,42.85
2018-09-18T16:48:11.074Z,42.25
2018-09-18T16:49:11.011Z,42.35
2018-09-18T16:50:10.995Z,42.35
2018-09-18T16:51:10.991Z,42.05
2018-09-18T16:52:10.975Z,42.05
2018-09-18T16:53:10.965Z,42.65
2018-09-18T16:54:11.009Z,42.85
2018-09-18T16:55:11.011Z,42.85
2018-09-18T16:56:10.938Z,42.45
2018-09-18T16:57:10.936Z,42.94
2018-09-18T16:58:10.918Z,42.96
2018-09-18T16:59:10.919Z,42.27
2018-09-18T17:00:10.928Z,42.17
2018-09-18T17:01:10.881Z,42.17
2018-09-18T17:02:10.930Z,42.37
2018-09-18T17:03:10.859Z,42.57
2018-09-18T17:04:10.850Z,42.37
2018-09-18T17:05:10.869Z,42.66
2018-09-18T17:06:10.871Z,42.57
2018-09-18T17:07:10.818Z,42.57
2018-09-18T17:08:10.812Z,42.66
2018-09-18T17:09:10.794Z,42.58
2018-09-18T17:10:10.784Z,42.57
2018-09-18T17:11:10.783Z,42.49
2018-09-18T17:12:10.812Z,42.99
2018-09-18T17:13:10.769Z,42.66
2018-09-18T17:14:10.753Z,42.69
2018-09-18T17:15:10.732Z,42.69
2018-09-18T17:16:10.729Z,42.79
2018-09-18T17:17:10.736Z,42.88
2018-09-18T17:18:10.712Z,42.79
2018-09-18T17:19:10.687Z,42.58
2018-09-18T17:20:10.675Z,42.88
2018-09-18T17:21:10.663Z,42.79
2018-09-18T17:22:10.651Z,42.69
2018-09-18T17:23:10.670Z,42.58
2018-09-18T17:24:10.630Z,42.79
2018-09-18T17:25:10.619Z,42.58
2018-09-18T17:26:10.610Z,42.58
2018-09-18T17:27:10.598Z,42.58
2018-09-18T17:28:10.623Z,42.49
2018-09-18T17:29:10.704Z,42.99
2018-09-18T17:30:10.568Z,43.58
2018-09-18T17:31:10.560Z,42.49
2018-09-18T17:32:10.548Z,43.80
2018-09-18T17:33:10.535Z,43.50
2018-09-18T17:34:10.560Z,43.20
2018-09-18T17:35:10.548Z,43.30
2018-09-18T17:36:10.500Z,43.18
2018-09-18T17:37:10.495Z,43.10
2018-09-18T17:38:10.479Z,43.20
2018-09-18T17:39:10.467Z,43.18
2018-09-18T17:40:10.504Z,43.30
2018-09-18T17:41:10.482Z,43.20
2018-09-18T17:42:10.435Z,43.20
2018-09-18T17:43:10.420Z,43.01
2018-09-18T17:44:10.411Z,43.10
2018-09-18T17:45:10.402Z,43.20
2018-09-18T17:46:10.419Z,43.10
2018-09-18T17:47:10.406Z,43.01
2018-09-18T17:48:10.364Z,43.10
2018-09-18T17:49:10.355Z,42.91
2018-09-18T17:50:10.352Z,42.91
2018-09-18T17:51:10.344Z,42.80
2018-09-18T17:52:10.323Z,43.50
2018-09-18T17:53:10.340Z,42.80
2018-09-18T17:54:10.307Z,43.60
2018-09-18T17:55:10.293Z,43.50
2018-09-18T17:56:10.282Z,43.40
2018-09-18T17:57:10.305Z,43.60
2018-09-18T17:58:10.273Z,43.90
2018-09-18T17:59:10.274Z,43.60
2018-09-18T18:00:10.235Z,43.90
2018-09-18T18:01:10.231Z,43.92
2018-09-18T18:02:10.222Z,44.00
2018-09-18T18:03:10.203Z,43.70
2018-09-18T18:04:10.211Z,44.02
2018-09-18T18:05:10.205Z,43.92
2018-09-18T18:06:10.192Z,44.02
2018-09-18T18:07:10.156Z,43.92
2018-09-18T18:08:10.153Z,44.12
2018-09-18T18:09:10.134Z,44.22
2018-09-18T18:10:10.151Z,44.32
2018-09-18T18:11:10.145Z,44.22
2018-09-18T18:12:10.101Z,44.20
2018-09-18T18:13:10.104Z,44.12
2018-09-18T18:14:10.084Z,44.52
2018-09-18T18:15:10.082Z,44.22
2018-09-18T18:16:10.074Z,44.32
2018-09-18T18:17:10.073Z,44.62
2018-09-18T18:18:10.032Z,44.62
2018-09-18T18:19:10.031Z,44.62
2018-09-18T18:20:10.041Z,44.32
2018-09-18T18:21:10.007Z,44.12
2018-09-18T18:22:10.043Z,44.52
2018-09-18T18:23:10.032Z,44.52
2018-09-18T18:24:09.974Z,44.62
2018-09-18T18:25:09.964Z,44.32
2018-09-18T18:26:09.949Z,44.52
2018-09-18T18:27:09.948Z,44.71
2018-09-18T18:28:09.935Z,44.42
2018-09-18T18:29:09.949Z,44.22
2018-09-18T18:30:09.906Z,44.02
2018-09-18T18:31:09.894Z,44.02
2018-09-18T18:32:09.880Z,44.52
2018-09-18T18:33:09.883Z,44.12
2018-09-18T18:34:09.859Z,44.52
2018-09-18T18:35:09.887Z,44.32
2018-09-18T18:36:09.833Z,44.52
2018-09-18T18:37:09.823Z,44.42
2018-09-18T18:38:09.816Z,44.52
2018-09-18T18:39:09.800Z,44.52
2018-09-18T18:40:09.794Z,44.52
2018-09-18T18:41:09.813Z,44.42
2018-09-18T18:42:09.770Z,44.34
2018-09-18T18:43:09.755Z,44.42
2018-09-18T18:44:09.747Z,44.81
2018-09-18T18:45:09.739Z,44.42
2018-09-18T18:46:09.723Z,44.81
2018-09-18T18:47:09.758Z,44.42
2018-09-18T18:48:09.829Z,44.42
2018-09-18T18:49:09.690Z,44.42
2018-09-18T18:50:09.680Z,44.42
2018-09-18T18:51:09.673Z,44.22
2018-09-18T18:52:09.660Z,44.42
2018-09-18T18:53:09.674Z,44.62
2018-09-18T18:54:09.634Z,44.22
2018-09-18T18:55:09.626Z,44.24
2018-09-18T18:56:09.663Z,44.22
2018-09-18T18:57:09.600Z,44.22
2018-09-18T18:58:09.590Z,44.22
2018-09-18T18:59:09.605Z,44.32
2018-09-18T19:00:09.570Z,44.22
2018-09-18T19:01:09.563Z,44.62
2018-09-18T19:02:09.561Z,44.74
2018-09-18T19:03:09.549Z,44.54
2018-09-18T19:04:09.522Z,44.24
2018-09-18T19:05:09.539Z,44.74
2018-09-18T19:06:09.534Z,44.24
2018-09-18T19:07:09.488Z,44.93
2018-09-18T19:08:09.504Z,45.14
2018-09-18T19:09:09.467Z,45.03
2018-09-18T19:10:09.479Z,45.14
2018-09-18T19:11:09.473Z,45.23
2018-09-18T19:12:09.465Z,45.03
2018-09-18T19:13:09.434Z,45.14
2018-09-18T19:14:09.419Z,44.84
2018-09-18T19:15:09.404Z,44.93
2018-09-18T19:16:09.471Z,44.93
2018-09-18T19:17:09.380Z,45.03
2018-09-18T19:18:09.373Z,44.93
2018-09-18T19:19:09.355Z,45.03
2018-09-18T19:20:09.345Z,44.93
2018-09-18T19:21:09.340Z,45.14
2018-09-18T19:22:09.353Z,45.23
2018-09-18T19:23:09.314Z,44.84
2018-09-18T19:24:09.301Z,45.23
2018-09-18T19:25:09.296Z,44.74
2018-09-18T19:26:09.327Z,44.74
2018-09-18T19:27:09.294Z,44.93
2018-09-18T19:28:09.295Z,44.93
2018-09-18T19:29:09.248Z,44.93
2018-09-18T19:30:09.244Z,45.03
2018-09-18T19:31:09.233Z,45.14
2018-09-18T19:32:09.221Z,45.14
2018-09-18T19:33:09.365Z,45.14
2018-09-18T19:34:09.227Z,45.23
2018-09-18T19:35:09.185Z,44.64
2018-09-18T19:36:09.168Z,44.93
2018-09-18T19:37:09.161Z,44.74
2018-09-18T19:38:09.151Z,44.74
2018-09-18T19:39:09.248Z,44.54
2018-09-18T19:40:09.155Z,44.74
2018-09-18T19:41:09.116Z,44.54
2018-09-18T19:42:09.103Z,44.76
2018-09-18T19:43:09.108Z,44.44
2018-09-18T19:44:09.081Z,44.44
2018-09-18T19:45:09.076Z,44.54
2018-09-18T19:46:09.093Z,44.64
2018-09-18T19:47:09.048Z,44.54
2018-09-18T19:48:09.042Z,44.74
2018-09-18T19:49:09.025Z,44.44
2018-09-18T19:50:09.015Z,44.54
2018-09-18T19:51:09.015Z,44.54
2018-09-18T19:52:09.049Z,44.44
2018-09-18T19:53:23.498Z,44.44
2018-09-18T19:54:08.975Z,44.44
2018-09-18T19:55:08.966Z,44.44
2018-09-18T19:56:08.951Z,44.56
2018-09-18T19:57:08.956Z,44.34
2018-09-18T19:58:08.963Z,44.44
2018-09-18T19:59:08.917Z,44.44
2018-09-18T20:00:08.911Z,44.34
2018-09-18T20:01:08.895Z,45.33
2018-09-18T20:02:08.955Z,45.23
2018-09-18T20:03:08.933Z,45.23
2018-09-18T20:04:08.895Z,45.14
2018-09-18T20:05:08.854Z,45.15
2018-09-18T20:06:08.842Z,45.23
2018-09-18T20:07:08.830Z,45.14
2018-09-18T20:08:08.824Z,45.36
2018-09-18T20:09:08.872Z,45.33
2018-09-18T20:10:08.821Z,45.33
2018-09-18T20:11:08.785Z,45.33
2018-09-18T20:12:08.772Z,45.43
2018-09-18T20:13:08.760Z,45.03
2018-09-18T20:14:08.754Z,45.33
2018-09-18T20:15:08.743Z,45.14
2018-09-18T20:16:08.763Z,45.03
2018-09-18T20:17:08.716Z,45.14
2018-09-18T20:18:08.707Z,45.06
2018-09-18T20:19:08.692Z,45.14
2018-09-18T20:20:08.680Z,44.84
2018-09-18T20:21:08.674Z,45.03
2018-09-18T20:22:08.689Z,45.03
2018-09-18T20:23:08.652Z,45.03
2018-09-18T20:24:08.644Z,44.93
2018-09-18T20:25:08.631Z,44.85
2018-09-18T20:26:08.616Z,44.84
2018-09-18T20:27:08.622Z,45.26
2018-09-18T20:28:08.625Z,45.23
2018-09-18T20:29:08.585Z,44.93
2018-09-18T20:30:08.569Z,45.06
2018-09-18T20:31:08.566Z,45.06
2018-09-18T20:32:08.555Z,45.14
2018-09-18T20:33:08.537Z,45.15
2018-09-18T20:34:08.552Z,45.36
2018-09-18T20:35:08.521Z,45.15
2018-09-18T20:36:08.708Z,45.33
2018-09-18T20:37:08.493Z,45.36
2018-09-18T20:38:08.485Z,45.36
2018-09-18T20:39:08.469Z,45.45
2018-09-18T20:40:08.484Z,45.45
2018-09-18T20:41:08.449Z,45.45
2018-09-18T20:42:08.452Z,45.06
2018-09-18T20:43:08.424Z,45.06
2018-09-18T20:44:08.415Z,44.96
2018-09-18T20:45:08.429Z,45.06
2018-09-18T20:46:08.400Z,45.06
2018-09-18T20:47:08.380Z,44.74
2018-09-18T20:48:08.422Z,44.74
2018-09-18T20:49:08.360Z,44.76
2018-09-18T20:50:08.352Z,44.76
2018-09-18T20:51:08.369Z,44.76
2018-09-18T20:52:08.333Z,44.76
2018-09-18T20:53:08.315Z,44.76
2018-09-18T20:54:08.308Z,44.66
2018-09-18T20:55:08.299Z,44.76
2018-09-18T20:56:08.308Z,44.66
2018-09-18T20:57:08.313Z,44.76
2018-09-18T20:58:08.263Z,44.76
2018-09-18T20:59:08.261Z,44.66
2018-09-18T21:00:08.239Z,45.55
2018-09-18T21:01:08.232Z,45.55
2018-09-18T21:02:08.379Z,45.75
2018-09-18T21:03:08.240Z,45.55
2018-09-18T21:04:08.196Z,44.66
2018-09-18T21:05:08.190Z,45.55
2018-09-18T21:06:08.183Z,45.45
2018-09-18T21:07:08.181Z,45.65
2018-09-18T21:08:08.186Z,46.15
2018-09-18T21:09:08.172Z,46.15
2018-09-18T21:10:08.131Z,45.06
2018-09-18T21:11:08.124Z,45.85
2018-09-18T21:12:08.119Z,45.55
2018-09-18T21:13:08.094Z,45.95
2018-09-18T21:14:08.091Z,45.65
2018-09-18T21:15:08.114Z,45.65
2018-09-18T21:16:08.059Z,45.65
2018-09-18T21:17:08.051Z,45.36
2018-09-18T21:18:08.049Z,45.65
2018-09-18T21:19:08.029Z,45.65